Time;durP1;ratioP1;P1;durP2;ratioP2;P2;SDS_P1;SDS_P2;PMS_P1;PMS_P2;Temp;Humidity;BMP_temperature;BMP_pressure;BME280_temperature;BME280_humidity;BME280_pressure;Samples;Min_cycle;Max_cycle;Signal;HPM_P1;HPM_P2
2023/07/03 00:00:19;;;;;;;;;7.60;7.00;;;;;22.85;100.00;98255.06;6058788;28;96309;-61
2023/07/03 00:03:27;;;;;;;;;9.00;8.00;;;;;22.81;100.00;98260.41;6043790;28;96840;-61
2023/07/03 00:06:30;;;;;;;;;8.00;7.00;;;;;22.77;100.00;98255.84;6042943;28;96694;-61
2023/07/03 00:09:34;;;;;;;;;8.50;8.00;;;;;22.71;100.00;98263.41;6058773;28;96366;-61
2023/07/03 00:12:38;;;;;;;;;10.00;9.00;;;;;22.72;100.00;98265.06;6058736;28;96880;-61
2023/07/03 00:15:41;;;;;;;;;9.00;8.00;;;;;22.74;100.00;98262.78;6042611;28;96409;-61
2023/07/03 00:18:44;;;;;;;;;7.60;7.60;;;;;22.75;100.00;98269.91;6058013;28;96368;-61
2023/07/03 00:21:48;;;;;;;;;9.00;8.60;;;;;22.68;100.00;98258.50;6059996;28;96259;-61
2023/07/03 00:24:51;;;;;;;;;7.00;7.00;;;;;22.83;100.00;98276.56;6041080;28;98473;-61
2023/07/03 00:27:55;;;;;;;;;8.50;7.50;;;;;22.83;100.00;98273.81;6058942;28;96292;-61
2023/07/03 00:30:58;;;;;;;;;8.00;8.00;;;;;22.85;100.00;98279.81;6041881;28;96432;-61
2023/07/03 00:34:02;;;;;;;;;8.20;7.60;;;;;22.90;100.00;98276.94;6059267;28;96597;-61
2023/07/03 00:37:06;;;;;;;;;7.75;7.75;;;;;22.94;100.00;98271.59;6059580;28;96429;-61
2023/07/03 00:40:10;;;;;;;;;9.00;9.00;;;;;22.94;100.00;98282.59;6059690;28;96988;-61
2023/07/03 00:43:15;;;;;;;;;9.00;8.00;;;;;22.93;100.00;98279.03;6042943;28;97641;-61
2023/07/03 00:46:18;;;;;;;;;9.00;8.00;;;;;22.98;100.00;98281.63;6049976;28;96138;-61
2023/07/03 00:49:22;;;;;;;;;9.00;8.00;;;;;22.89;100.00;98283.53;6057149;28;97103;-61
2023/07/03 00:52:26;;;;;;;;;9.00;9.00;;;;;22.85;100.00;98290.81;6056707;28;96374;-61
2023/07/03 00:55:31;;;;;;;;;8.20;8.00;;;;;22.75;100.00;98283.63;6041289;28;96869;-61
2023/07/03 00:58:36;;;;;;;;;7.00;7.00;;;;;22.61;100.00;98288.38;6057076;28;96783;-61
2023/07/03 01:01:46;;;;;;;;;8.67;8.00;;;;;22.54;100.00;98287.19;6057638;28;96457;-61
2023/07/03 01:04:54;;;;;;;;;6.40;6.00;;;;;22.60;100.00;98292.25;6067377;28;96689;-61
2023/07/03 01:08:00;;;;;;;;;9.80;9.00;;;;;22.60;100.00;98291.44;6058249;28;96340;-61
2023/07/03 01:11:05;;;;;;;;;10.00;9.80;;;;;22.63;100.00;98294.38;6056593;28;96278;-61
2023/07/03 01:14:13;;;;;;;;;7.60;7.60;;;;;22.62;100.00;98294.69;6054062;28;96283;-61
2023/07/03 01:17:18;;;;;;;;;8.00;8.00;;;;;22.55;100.00;98303.38;6053251;28;96341;-61
2023/07/03 01:20:24;;;;;;;;;8.00;7.50;;;;;22.50;100.00;98299.94;6036553;28;96737;-61
2023/07/03 01:23:34;;;;;;;;;9.00;9.00;;;;;22.46;100.00;98302.50;6039037;28;97156;-61
2023/07/03 01:26:42;;;;;;;;;7.60;7.60;;;;;22.47;100.00;98304.13;6055728;28;97181;-61
2023/07/03 01:29:55;;;;;;;;;6.40;6.40;;;;;22.56;100.00;98299.50;6040795;28;96615;-61
2023/07/03 01:33:00;;;;;;;;;7.00;7.00;;;;;22.48;100.00;98295.56;6041088;28;96570;-61
2023/07/03 01:36:05;;;;;;;;;8.00;7.60;;;;;22.59;100.00;98298.88;6057326;28;98433;-61
2023/07/03 01:39:08;;;;;;;;;8.00;7.25;;;;;22.56;100.00;98295.94;6057834;28;97012;-60
2023/07/03 01:42:14;;;;;;;;;11.00;10.00;;;;;22.50;100.00;98289.75;6054477;28;96402;-61
2023/07/03 01:45:17;;;;;;;;;11.00;10.00;;;;;22.58;100.00;98286.25;6037953;28;96767;-61
2023/07/03 01:48:20;;;;;;;;;8.33;8.00;;;;;22.55;100.00;98297.06;6055164;28;98077;-61
2023/07/03 01:51:38;;;;;;;;;10.75;10.00;;;;;22.53;100.00;98294.63;6023482;28;96692;-61
2023/07/03 01:54:55;;;;;;;;;9.80;9.00;;;;;22.54;100.00;98298.19;6054192;28;96711;-61
2023/07/03 01:58:07;;;;;;;;;11.67;10.67;;;;;22.49;100.00;98299.13;6030951;29;96339;-61
2023/07/03 02:01:15;;;;;;;;;7.00;7.00;;;;;22.47;100.00;98295.91;6053930;28;96404;-61
2023/07/03 02:04:27;;;;;;;;;10.40;9.80;;;;;22.50;100.00;98298.00;6054861;28;96424;-61
2023/07/03 02:07:32;;;;;;;;;7.00;6.67;;;;;22.50;100.00;98308.19;6059888;28;96374;-61
2023/07/03 02:10:36;;;;;;;;;10.00;9.00;;;;;22.43;100.00;98297.66;6058390;28;96355;-61
2023/07/03 02:13:41;;;;;;;;;10.20;10.20;;;;;22.48;100.00;98309.28;6058824;28;96288;-61
2023/07/03 02:16:47;;;;;;;;;11.00;9.40;;;;;22.43;100.00;98303.94;6041996;28;96614;-61
2023/07/03 02:19:50;;;;;;;;;10.00;8.00;;;;;22.42;100.00;98309.75;6042171;28;96780;-61
2023/07/03 02:22:53;;;;;;;;;8.00;8.00;;;;;22.40;100.00;98306.50;6058286;28;96286;-61
2023/07/03 02:25:56;;;;;;;;;7.00;7.00;;;;;22.42;100.00;98307.00;6055620;28;96722;-61
2023/07/03 02:29:02;;;;;;;;;8.00;8.00;;;;;22.42;100.00;98302.34;6058087;28;96917;-61
2023/07/03 02:32:08;;;;;;;;;8.00;7.00;;;;;22.38;100.00;98303.28;6057580;28;96409;-61
2023/07/03 02:35:11;;;;;;;;;8.00;8.00;;;;;22.44;100.00;98305.56;6041760;28;97257;-61
2023/07/03 02:38:15;;;;;;;;;8.00;7.00;;;;;22.40;100.00;98303.75;6058845;28;97734;-61
2023/07/03 02:41:21;;;;;;;;;8.00;7.00;;;;;22.38;100.00;98317.00;6060561;28;96576;-61
2023/07/03 02:44:26;;;;;;;;;9.00;9.00;;;;;22.33;100.00;98317.91;6060006;28;97046;-61
2023/07/03 02:47:34;;;;;;;;;8.00;7.60;;;;;22.09;100.00;98278.19;6056789;28;96725;-61
2023/07/03 02:50:37;;;;;;;;;9.00;8.60;;;;;22.23;100.00;98322.88;6043322;28;98750;-60
2023/07/03 02:53:42;;;;;;;;;10.00;9.00;;;;;22.21;100.00;98322.34;6038952;28;97856;-61
2023/07/03 02:56:48;;;;;;;;;7.00;7.00;;;;;22.22;100.00;98330.28;6057332;28;96379;-61
2023/07/03 02:59:53;;;;;;;;;9.60;9.60;;;;;22.22;100.00;98322.06;6057139;28;97005;-61
2023/07/03 03:02:56;;;;;;;;;7.00;7.00;;;;;22.19;100.00;98330.88;6058516;28;96417;-61
2023/07/03 03:05:59;;;;;;;;;7.00;7.00;;;;;22.19;100.00;98327.31;6058350;28;97038;-61
2023/07/03 03:09:04;;;;;;;;;10.00;9.40;;;;;22.14;100.00;98317.28;6058025;28;96868;-61
2023/07/03 03:12:10;;;;;;;;;7.00;6.40;;;;;22.15;100.00;98318.91;6055581;28;97300;-61
2023/07/03 03:15:17;;;;;;;;;7.00;7.00;;;;;22.12;100.00;98318.72;6055268;28;97490;-61
2023/07/03 03:18:20;;;;;;;;;7.40;6.40;;;;;22.12;100.00;98319.53;6052555;28;96893;-61
2023/07/03 03:21:23;;;;;;;;;7.20;6.20;;;;;22.11;100.00;98322.59;6052956;28;97028;-61
2023/07/03 03:24:27;;;;;;;;;6.60;6.20;;;;;21.92;100.00;98304.31;6035716;28;99312;-61
2023/07/03 03:27:30;;;;;;;;;9.00;8.00;;;;;21.94;100.00;98315.03;6034974;28;96573;-61
2023/07/03 03:30:35;;;;;;;;;7.60;7.40;;;;;21.88;100.00;98322.53;6052998;28;96393;-61
2023/07/03 03:33:38;;;;;;;;;10.00;8.00;;;;;21.88;100.00;98319.78;6053046;28;96313;-61
2023/07/03 03:36:41;;;;;;;;;9.00;9.00;;;;;21.90;100.00;98324.94;6056057;28;96907;-61
2023/07/03 03:39:45;;;;;;;;;7.00;6.00;;;;;21.85;100.00;98325.06;6055751;28;96645;-61
2023/07/03 03:42:49;;;;;;;;;8.00;8.00;;;;;21.93;100.00;98327.94;6056440;28;96401;-60
2023/07/03 03:45:57;;;;;;;;;11.00;10.00;;;;;21.98;100.00;98327.81;6037121;28;96832;-61
2023/07/03 03:49:02;;;;;;;;;8.80;8.00;;;;;21.99;100.00;98332.16;6056728;28;96617;-61
2023/07/03 03:52:08;;;;;;;;;8.00;6.60;;;;;22.10;100.00;98329.19;6055580;28;96310;-61
2023/07/03 03:55:12;;;;;;;;;10.00;9.75;;;;;22.16;100.00;98330.72;6052525;28;97511;-60
2023/07/03 03:58:15;;;;;;;;;8.00;8.00;;;;;22.21;100.00;98334.16;6052988;28;96247;-60
2023/07/03 04:01:20;;;;;;;;;10.75;10.75;;;;;22.14;100.00;98311.78;6049295;28;96328;-60
2023/07/03 04:04:23;;;;;;;;;9.00;9.00;;;;;22.41;100.00;98332.84;6049987;28;96976;-60
2023/07/03 04:07:26;;;;;;;;;10.80;10.80;;;;;22.45;100.00;98334.66;6050683;28;97120;-60
2023/07/03 04:10:29;;;;;;;;;7.00;6.75;;;;;22.53;100.00;98326.81;6053590;28;97048;-61
2023/07/03 04:13:32;;;;;;;;;10.00;8.40;;;;;22.57;100.00;98339.59;6054394;28;96510;-60
2023/07/03 04:16:37;;;;;;;;;9.00;8.00;;;;;22.64;100.00;98330.88;6056655;28;98238;-60
2023/07/03 04:19:40;;;;;;;;;7.60;7.00;;;;;22.66;100.00;98336.91;6066980;28;96393;-60
2023/07/03 04:22:44;;;;;;;;;8.60;8.40;;;;;22.72;100.00;98338.44;6056338;28;96936;-60
2023/07/03 04:25:48;;;;;;;;;7.40;7.40;;;;;22.64;100.00;98337.19;6055333;28;96529;-61
2023/07/03 04:28:52;;;;;;;;;10.00;9.25;;;;;22.80;100.00;98343.97;6056806;28;96387;-61
2023/07/03 04:31:56;;;;;;;;;8.40;8.40;;;;;22.87;100.00;98349.03;6038659;28;98270;-60
2023/07/03 04:35:00;;;;;;;;;7.20;6.80;;;;;23.00;100.00;98347.31;6057981;28;96467;-61
2023/07/03 04:38:04;;;;;;;;;9.00;8.00;;;;;23.09;100.00;98340.72;6053759;28;96368;-60
2023/07/03 04:41:07;;;;;;;;;10.00;10.00;;;;;23.14;100.00;98339.78;6055912;28;96506;-60
2023/07/03 04:44:12;;;;;;;;;7.00;7.00;;;;;23.27;100.00;98344.34;6057112;28;96619;-60
2023/07/03 04:47:17;;;;;;;;;6.00;6.00;;;;;23.40;100.00;98348.13;6057337;28;97814;-60
2023/07/03 04:50:24;;;;;;;;;9.40;8.40;;;;;23.47;100.00;98348.50;6057929;28;96382;-60
2023/07/03 04:53:28;;;;;;;;;9.40;9.00;;;;;23.55;100.00;98350.50;6052616;28;96354;-60
2023/07/03 04:56:34;;;;;;;;;6.75;6.00;;;;;23.59;100.00;98360.53;6053111;28;96271;-61
2023/07/03 04:59:37;;;;;;;;;5.40;5.40;;;;;23.68;100.00;98352.28;6053324;28;97289;-61
2023/07/03 05:02:42;;;;;;;;;7.75;7.00;;;;;23.70;100.00;98352.78;6054778;28;96442;-60
2023/07/03 05:05:45;;;;;;;;;9.00;9.00;;;;;23.80;100.00;98359.94;6055229;28;96337;-61
2023/07/03 05:08:48;;;;;;;;;7.80;7.80;;;;;23.87;100.00;98357.50;6053647;28;97119;-60
2023/07/03 05:11:53;;;;;;;;;6.40;6.00;;;;;23.82;100.00;98357.66;6050261;28;96318;-60
2023/07/03 05:14:56;;;;;;;;;8.00;7.00;;;;;23.95;100.00;98360.28;6036464;28;97578;-60
2023/07/03 05:18:01;;;;;;;;;7.00;7.00;;;;;23.96;100.00;98339.06;6055323;28;97068;-60
2023/07/03 05:21:06;;;;;;;;;7.80;6.20;;;;;24.18;100.00;98361.00;6073758;28;96233;-60
2023/07/03 05:24:09;;;;;;;;;8.60;8.00;;;;;24.36;100.00;98361.78;6069253;28;97009;-61
2023/07/03 05:27:13;;;;;;;;;7.00;7.00;;;;;24.44;100.00;98361.78;6054464;28;96408;-61
2023/07/03 05:30:17;;;;;;;;;8.00;8.00;;;;;24.48;100.00;98359.22;6055439;28;96778;-61
2023/07/03 05:33:21;;;;;;;;;5.00;5.00;;;;;24.57;100.00;98363.59;6055280;28;99092;-60
2023/07/03 05:36:24;;;;;;;;;8.00;7.00;;;;;24.60;100.00;98353.84;6057516;28;96499;-60
2023/07/03 05:39:28;;;;;;;;;6.50;6.00;;;;;24.76;100.00;98365.16;6056728;28;96324;-61
2023/07/03 05:42:34;;;;;;;;;4.80;4.80;;;;;24.85;100.00;98369.53;6062380;28;96823;-60
2023/07/03 05:45:37;;;;;;;;;7.00;7.00;;;;;24.99;100.00;98370.19;6062152;28;96461;-60
2023/07/03 05:48:42;;;;;;;;;7.00;6.40;;;;;25.14;100.00;98376.28;6045931;28;97611;-60
2023/07/03 05:51:45;;;;;;;;;8.60;8.60;;;;;25.28;100.00;98374.13;6061076;28;97136;-61
2023/07/03 05:54:48;;;;;;;;;8.00;8.00;;;;;25.44;100.00;98384.31;6061189;28;96429;-61
2023/07/03 05:57:51;;;;;;;;;6.60;6.40;;;;;25.54;100.00;98379.56;6062842;28;96882;-60
2023/07/03 06:00:55;;;;;;;;;6.00;6.00;;;;;25.60;100.00;98381.03;6063134;28;96365;-60
2023/07/03 06:04:00;;;;;;;;;7.00;6.00;;;;;25.64;100.00;98388.31;6063041;28;96502;-61
2023/07/03 06:07:04;;;;;;;;;8.00;8.00;;;;;25.79;100.00;98390.50;6047504;28;98519;-61
2023/07/03 06:10:08;;;;;;;;;7.00;7.00;;;;;25.81;100.00;98387.41;6062980;28;96328;-61
2023/07/03 06:13:13;;;;;;;;;7.00;6.00;;;;;25.86;100.00;98390.78;6064063;28;96312;-61
2023/07/03 06:16:16;;;;;;;;;5.50;5.00;;;;;25.84;100.00;98393.09;6064671;28;97815;-61
2023/07/03 06:19:21;;;;;;;;;8.60;8.60;;;;;25.90;100.00;98395.66;6066568;28;96408;-61
2023/07/03 06:22:25;;;;;;;;;6.33;6.33;;;;;26.04;100.00;98393.44;6066143;28;97766;-61
2023/07/03 06:25:28;;;;;;;;;6.40;6.40;;;;;26.17;100.00;98390.44;6066108;28;96953;-60
2023/07/03 06:28:31;;;;;;;;;7.00;6.67;;;;;26.30;100.00;98385.81;6065316;28;96354;-60
2023/07/03 06:31:34;;;;;;;;;8.80;7.80;;;;;26.33;100.00;98378.81;6066084;28;96539;-60
2023/07/03 06:34:39;;;;;;;;;6.00;6.00;;;;;26.40;100.00;98374.34;6065816;28;97056;-60
2023/07/03 06:37:42;;;;;;;;;6.00;6.00;;;;;26.57;100.00;98376.16;6066977;28;96352;-60
2023/07/03 06:40:55;;;;;;;;;7.00;6.75;;;;;26.47;100.00;98374.63;6065586;28;96121;-61
2023/07/03 06:43:58;;;;;;;;;5.00;5.00;;;;;26.44;100.00;98382.78;6085358;28;96278;-61
2023/07/03 06:47:01;;;;;;;;;7.00;6.50;;;;;26.56;100.00;98383.66;6090218;28;96433;-61
2023/07/03 06:50:08;;;;;;;;;6.00;6.00;;;;;26.69;100.00;98381.72;6089014;28;97083;-61
2023/07/03 06:53:11;;;;;;;;;5.40;5.40;;;;;26.67;100.00;98381.28;6087995;28;96337;-60
2023/07/03 06:56:14;;;;;;;;;6.00;6.00;;;;;26.71;100.00;98382.22;6076824;28;96252;-61
2023/07/03 06:59:17;;;;;;;;;5.00;4.00;;;;;26.80;100.00;98384.88;6065290;28;96407;-60
2023/07/03 07:02:21;;;;;;;;;6.00;6.00;;;;;26.91;100.00;98377.81;6049141;28;96723;-61
2023/07/03 07:05:28;;;;;;;;;7.00;7.00;;;;;26.99;100.00;98386.03;6065109;28;96387;-60
2023/07/03 07:08:32;;;;;;;;;8.00;7.00;;;;;27.05;100.00;98359.75;6064782;28;96818;-60
2023/07/03 07:11:37;;;;;;;;;6.00;5.00;;;;;27.25;100.00;98382.97;6063579;28;96639;-60
2023/07/03 07:14:40;;;;;;;;;6.00;6.00;;;;;27.41;88.89;98372.88;6064622;28;96326;-61
2023/07/03 07:17:43;;;;;;;;;7.00;5.40;;;;;27.49;90.80;98371.97;6065841;28;96085;-60
2023/07/03 07:20:55;;;;;;;;;5.00;4.50;;;;;27.72;90.68;98374.28;6065689;28;96782;-60
2023/07/03 07:24:00;;;;;;;;;5.00;5.00;;;;;27.93;87.29;98377.72;6064818;28;96418;-61
2023/07/03 07:27:05;;;;;;;;;7.50;5.00;;;;;27.81;74.81;98370.22;6066432;28;96262;-61
2023/07/03 07:30:09;;;;;;;;;6.00;6.00;;;;;27.95;71.92;98375.44;6049462;28;98974;-61
2023/07/03 07:33:12;;;;;;;;;5.40;4.60;;;;;28.11;72.30;98359.72;6048736;28;98379;-60
2023/07/03 07:36:20;;;;;;;;;7.00;6.60;;;;;28.51;70.71;98370.00;6066821;28;96842;-61
2023/07/03 07:39:25;;;;;;;;;6.40;6.40;;;;;28.68;72.70;98369.72;6048722;28;96668;-61
2023/07/03 07:42:31;;;;;;;;;8.00;6.40;;;;;28.56;62.75;98372.53;6062397;28;97159;-61
2023/07/03 07:45:34;;;;;;;;;8.00;7.60;;;;;28.78;63.29;98364.47;6064276;28;96599;-61
2023/07/03 07:48:37;;;;;;;;;9.60;7.00;;;;;29.07;60.28;98370.84;6063461;28;96252;-61
2023/07/03 07:51:42;;;;;;;;;8.00;7.20;;;;;29.37;60.06;98374.03;6046239;28;98683;-61
2023/07/03 07:54:45;;;;;;;;;7.60;7.00;;;;;29.29;52.34;98373.00;6062692;28;98425;-61
2023/07/03 07:57:50;;;;;;;;;9.80;8.80;;;;;29.39;48.83;98374.47;6062092;28;98799;-61
2023/07/03 08:00:57;;;;;;;;;9.60;8.00;;;;;29.39;49.58;98371.69;6063557;28;96277;-61
2023/07/03 08:04:00;;;;;;;;;7.50;7.50;;;;;29.51;47.76;98364.09;6062276;28;96415;-61
2023/07/03 08:07:06;;;;;;;;;7.60;7.00;;;;;29.61;50.77;98369.09;6064133;28;96139;-61
2023/07/03 08:10:10;;;;;;;;;10.40;10.00;;;;;29.87;49.52;98368.50;6064462;28;96334;-61
2023/07/03 08:13:13;;;;;;;;;6.80;6.00;;;;;29.81;50.88;98361.59;6064603;28;96866;-61
2023/07/03 08:16:17;;;;;;;;;9.00;6.00;;;;;29.38;51.37;98368.09;6065556;28;96501;-61
2023/07/03 08:19:21;;;;;;;;;8.00;7.25;;;;;29.48;54.59;98373.13;6064612;28;96353;-61
2023/07/03 08:22:25;;;;;;;;;8.00;7.00;;;;;29.82;54.28;98370.75;6063652;28;96376;-61
2023/07/03 08:25:28;;;;;;;;;8.40;8.40;;;;;30.12;52.34;98363.56;6063190;28;96819;-61
2023/07/03 08:28:31;;;;;;;;;9.00;7.00;;;;;30.61;50.72;98360.25;6048798;28;99907;-61
2023/07/03 08:31:35;;;;;;;;;10.20;10.20;;;;;30.16;40.74;98360.84;6064057;28;96094;-61
2023/07/03 08:34:41;;;;;;;;;10.00;10.00;;;;;29.92;42.06;98368.25;6063371;28;96359;-61
2023/07/03 08:38:05;;;;;;;;;7.60;7.60;;;;;29.95;43.38;98367.56;6045491;28;97284;-61
2023/07/03 08:41:12;;;;;;;;;9.80;9.80;;;;;30.28;44.63;98364.31;6062939;28;98940;-61
2023/07/03 08:44:16;;;;;;;;;9.40;8.40;;;;;30.22;41.47;98364.97;6062882;28;97039;-61
2023/07/03 08:47:24;;;;;;;;;8.00;7.00;;;;;30.19;42.01;98352.59;6065033;28;96453;-61
2023/07/03 08:50:29;;;;;;;;;7.60;7.00;;;;;29.95;43.37;98359.22;6065253;28;96297;-61
2023/07/03 08:53:43;;;;;;;;;8.00;8.00;;;;;29.28;43.49;98363.03;6047182;28;99027;-61
2023/07/03 08:56:48;;;;;;;;;5.60;5.60;;;;;29.26;46.28;98360.66;6033314;28;98509;-61
2023/07/03 08:59:53;;;;;;;;;9.00;7.00;;;;;29.44;48.50;98371.41;6064461;28;96800;-61
2023/07/03 09:03:05;;;;;;;;;8.00;7.00;;;;;29.82;46.45;98357.66;6066218;28;96527;-61
2023/07/03 09:06:19;;;;;;;;;6.60;5.40;;;;;29.94;48.60;98362.34;6047556;28;98413;-61
2023/07/03 09:09:31;;;;;;;;;5.50;5.00;;;;;29.88;46.03;98360.97;6065859;28;96429;-61
2023/07/03 09:12:39;;;;;;;;;8.00;7.20;;;;;29.97;47.85;98356.88;6064684;28;96271;-61
2023/07/03 09:15:48;;;;;;;;;6.00;6.00;;;;;30.33;44.92;98354.88;6065874;28;96603;-61
2023/07/03 09:18:57;;;;;;;;;7.00;6.00;;;;;30.54;44.78;98349.81;6066882;28;96907;-61
2023/07/03 09:22:03;;;;;;;;;7.00;6.00;;;;;30.95;44.72;98353.78;6068376;28;96588;-61
2023/07/03 09:25:16;;;;;;;;;9.40;8.00;;;;;31.04;41.66;98361.91;6051665;28;96555;-61
2023/07/03 09:28:20;;;;;;;;;8.00;7.00;;;;;31.01;44.22;98349.53;6068935;28;96962;-61
2023/07/03 09:31:24;;;;;;;;;9.20;7.80;;;;;31.13;43.21;98366.06;6055804;28;96902;-61
2023/07/03 09:34:27;;;;;;;;;9.00;7.00;;;;;31.24;41.03;98357.91;6092129;28;96614;-61
2023/07/03 09:37:30;;;;;;;;;6.50;6.50;;;;;31.44;42.45;98362.25;6093833;28;96283;-61
2023/07/03 09:40:38;;;;;;;;;8.80;7.20;;;;;31.48;39.30;98363.13;6093007;28;96856;-61
2023/07/03 09:43:45;;;;;;;;;9.00;7.00;;;;;31.19;36.92;98361.00;6082288;28;96272;-61
2023/07/03 09:46:48;;;;;;;;;10.00;8.20;;;;;31.11;39.40;98362.88;6052754;28;96714;-61
2023/07/03 09:49:52;;;;;;;;;9.00;7.50;;;;;31.19;39.05;98344.31;6069232;28;99026;-61
2023/07/03 09:52:56;;;;;;;;;13.00;12.00;;;;;31.47;34.56;98374.66;6069223;28;96669;-61
2023/07/03 09:56:18;;;;;;;;;12.20;10.40;;;;;31.73;35.96;98369.94;6071677;28;96411;-61
2023/07/03 09:59:24;;;;;;;;;12.00;11.00;;;;;31.89;34.78;98369.00;6070823;28;96289;-61
2023/07/03 10:02:27;;;;;;;;;11.40;10.00;;;;;31.85;33.09;98382.06;6069724;28;96362;-61
2023/07/03 10:05:34;;;;;;;;;12.00;12.00;;;;;31.81;33.66;98380.00;6072977;28;97371;-61
2023/07/03 10:08:42;;;;;;;;;11.00;10.00;;;;;31.97;34.97;98376.28;6069498;28;96281;-61
2023/07/03 10:12:02;;;;;;;;;10.00;9.00;;;;;31.58;34.29;98376.47;6067507;28;96264;-61
2023/07/03 10:15:11;;;;;;;;;13.60;12.60;;;;;31.51;35.09;98376.31;6053832;28;96857;-61
2023/07/03 10:18:21;;;;;;;;;13.40;12.00;;;;;31.28;34.19;98384.66;6071275;28;96393;-61
2023/07/03 10:21:24;;;;;;;;;11.60;9.40;;;;;31.28;34.65;98372.72;6069847;28;96562;-61
2023/07/03 10:24:28;;;;;;;;;10.60;10.00;;;;;31.04;36.03;98381.41;6070027;28;96956;-61
2023/07/03 10:27:35;;;;;;;;;12.33;10.33;;;;;30.86;35.78;98386.63;6051483;28;96680;-61
2023/07/03 10:30:40;;;;;;;;;11.00;10.00;;;;;30.87;36.22;98386.25;6069237;28;96338;-61
2023/07/03 10:33:48;;;;;;;;;12.00;10.00;;;;;31.12;36.75;98383.97;6066939;28;96285;-61
2023/07/03 10:37:00;;;;;;;;;12.00;11.00;;;;;30.84;35.19;98380.59;6051526;28;96899;-61
2023/07/03 10:40:12;;;;;;;;;15.20;13.00;;;;;30.52;35.68;98388.31;6065645;28;96420;-61
2023/07/03 10:43:19;;;;;;;;;12.40;12.00;;;;;30.91;37.17;98373.22;6053090;28;98401;-61
2023/07/03 10:46:29;;;;;;;;;12.00;10.00;;;;;31.02;36.32;98384.59;6068236;28;96708;-61
2023/07/03 10:49:35;;;;;;;;;11.00;11.00;;;;;31.01;38.59;98382.13;6050123;28;96994;-61
2023/07/03 10:52:48;;;;;;;;;12.00;11.00;;;;;31.06;37.85;98377.09;6049105;28;98435;-61
2023/07/03 10:56:00;;;;;;;;;12.50;12.00;;;;;31.17;35.75;98375.31;6056751;28;96275;-61
2023/07/03 10:59:12;;;;;;;;;12.75;9.75;;;;;31.48;38.10;98371.47;6042671;29;96254;-61
2023/07/03 11:02:23;;;;;;;;;11.67;10.00;;;;;31.08;36.10;98369.19;6041924;29;96710;-61
2023/07/03 11:05:35;;;;;;;;;12.00;11.00;;;;;31.43;36.39;98360.66;6042082;29;96282;-61
2023/07/03 11:08:48;;;;;;;;;12.00;11.00;;;;;31.85;38.05;98373.72;6044205;28;97103;-61
2023/07/03 11:12:02;;;;;;;;;12.25;10.75;;;;;31.52;34.38;98368.78;6067490;28;96310;-61
2023/07/03 11:15:27;;;;;;;;;14.40;13.40;;;;;31.52;35.27;98371.56;6048535;28;96317;-61
2023/07/03 11:18:48;;;;;;;;;11.60;11.00;;;;;31.29;35.36;98369.56;6047920;28;96297;-61
2023/07/03 11:22:03;;;;;;;;;12.75;11.00;;;;;31.16;34.33;98370.13;6046949;28;96348;-59
2023/07/03 11:25:17;;;;;;;;;12.00;11.00;;;;;31.27;34.82;98360.78;6046518;28;96282;-61
2023/07/03 11:28:31;;;;;;;;;15.60;13.00;;;;;30.73;37.89;98352.59;6047704;28;96774;-61
2023/07/03 11:31:38;;;;;;;;;15.00;13.60;;;;;31.01;38.42;98354.28;6046489;28;97523;-61
2023/07/03 11:34:43;;;;;;;;;14.00;12.60;;;;;31.36;37.37;98368.91;6047779;28;96462;-61
2023/07/03 11:37:59;;;;;;;;;14.00;12.00;;;;;31.56;38.14;98364.06;6044962;28;96355;-61
2023/07/03 11:41:10;;;;;;;;;14.00;12.00;;;;;31.65;35.69;98354.28;6047706;28;96306;-61
2023/07/03 11:44:17;;;;;;;;;15.40;14.00;;;;;31.63;35.48;98370.56;6047502;28;96270;-61
2023/07/03 11:47:27;;;;;;;;;9.60;9.60;;;;;31.85;36.04;98359.78;6047295;28;96379;-61
2023/07/03 11:50:34;;;;;;;;;16.00;14.60;;;;;32.17;36.47;98347.94;6046280;28;96401;-61
2023/07/03 11:53:39;;;;;;;;;16.60;13.40;;;;;32.09;35.57;98349.00;6045893;28;96338;-59
2023/07/03 11:56:52;;;;;;;;;13.00;12.00;;;;;32.22;36.60;98352.38;6021519;29;98511;-59
2023/07/03 12:00:14;;;;;;;;;12.00;11.00;;;;;32.33;34.71;98346.94;6022956;29;96366;-61
2023/07/03 12:03:53;;;;;;;;;13.20;11.80;;;;;32.74;37.31;98351.50;6023611;29;96383;-61
2023/07/03 12:06:56;;;;;;;;;13.50;13.00;;;;;32.80;33.65;98349.94;6020153;29;96314;-61
2023/07/03 12:10:33;;;;;;;;;11.60;10.00;;;;;32.50;31.71;98347.16;6044725;28;96408;-61
2023/07/03 12:13:46;;;;;;;;;12.60;11.60;;;;;32.72;33.02;98341.88;6044278;28;98592;-61
2023/07/03 12:16:49;;;;;;;;;14.50;13.00;;;;;33.05;33.85;98348.22;6046366;28;96444;-61
2023/07/03 12:20:05;;;;;;;;;12.00;12.00;;;;;33.19;34.46;98346.78;6044331;28;96818;-61
2023/07/03 12:23:08;;;;;;;;;16.00;14.00;;;;;33.21;33.93;98345.22;6043495;28;96776;-61
2023/07/03 12:26:15;;;;;;;;;15.00;13.60;;;;;32.82;33.22;98341.19;6045209;28;96795;-61
2023/07/03 12:29:19;;;;;;;;;15.33;13.33;;;;;32.58;33.86;98342.50;6021613;29;96452;-61
2023/07/03 12:32:27;;;;;;;;;12.20;11.20;;;;;32.26;34.01;98356.00;6022022;29;96961;-61
2023/07/03 12:35:35;;;;;;;;;15.75;12.75;;;;;32.40;32.30;98350.63;6019970;29;98496;-61
2023/07/03 12:38:39;;;;;;;;;16.00;14.00;;;;;32.69;32.93;98349.03;6020386;29;96727;-59
2023/07/03 12:41:42;;;;;;;;;15.50;13.50;;;;;32.79;31.47;98334.41;6021304;29;96329;-59
2023/07/03 12:44:46;;;;;;;;;15.25;12.25;;;;;32.83;32.09;98342.81;6021261;29;96267;-59
2023/07/03 12:48:01;;;;;;;;;14.00;12.00;;;;;32.62;31.90;98335.75;6021597;29;96880;-59
2023/07/03 12:51:08;;;;;;;;;12.40;11.40;;;;;32.50;32.15;98332.44;6019929;29;96365;-61
2023/07/03 12:54:13;;;;;;;;;14.00;13.00;;;;;32.29;31.81;98346.09;6020722;29;96380;-61
2023/07/03 12:57:16;;;;;;;;;14.40;13.40;;;;;31.98;34.19;98334.09;6019634;29;96688;-61
2023/07/03 13:00:32;;;;;;;;;12.40;11.60;;;;;31.69;35.35;98335.66;6019229;29;96420;-61
2023/07/03 13:03:39;;;;;;;;;12.00;12.00;;;;;31.77;34.07;98323.41;6021979;29;97097;-61
2023/07/03 13:06:45;;;;;;;;;17.80;14.40;;;;;31.27;34.57;98324.59;6021638;29;97063;-61
2023/07/03 13:09:48;;;;;;;;;12.00;11.00;;;;;31.37;34.02;98323.16;6003886;29;98452;-59
2023/07/03 13:13:09;;;;;;;;;12.00;12.00;;;;;31.55;35.10;98323.44;6025644;28;96974;-62
2023/07/03 13:16:15;;;;;;;;;17.00;15.00;;;;;31.91;34.79;98317.28;6018070;28;96984;-61
2023/07/03 13:19:27;;;;;;;;;14.00;12.00;;;;;32.10;35.34;98310.75;6019334;29;96354;-59
2023/07/03 13:22:32;;;;;;;;;12.00;12.00;;;;;32.40;33.65;98317.13;6020908;29;96972;-58
2023/07/03 13:25:39;;;;;;;;;11.20;10.20;;;;;32.50;34.11;98318.47;6018143;29;96269;-59
2023/07/03 13:28:52;;;;;;;;;15.00;12.00;;;;;32.51;35.06;98322.84;6020453;29;96312;-59
2023/07/03 13:32:14;;;;;;;;;17.00;13.00;;;;;32.38;35.72;98319.53;6016189;29;98679;-61
2023/07/03 13:35:28;;;;;;;;;11.60;10.60;;;;;32.43;35.93;98321.97;6016611;29;96678;-61
2023/07/03 13:38:32;;;;;;;;;16.00;13.00;;;;;32.22;36.16;98319.72;6020521;29;96410;-61
2023/07/03 13:41:37;;;;;;;;;17.00;14.00;;;;;32.08;36.54;98319.50;6018025;29;96613;-61
2023/07/03 13:44:40;;;;;;;;;14.00;11.75;;;;;32.35;35.77;98297.97;6003132;29;98500;-61
2023/07/03 13:47:43;;;;;;;;;11.25;10.25;;;;;32.35;35.23;98319.47;6018204;29;98525;-61
2023/07/03 13:50:49;;;;;;;;;13.75;12.75;;;;;32.27;34.45;98310.22;6019718;29;96641;-61
2023/07/03 13:53:53;;;;;;;;;12.40;11.00;;;;;32.34;35.05;98312.28;6019806;29;96943;-61
2023/07/03 13:57:09;;;;;;;;;14.00;11.00;;;;;32.31;35.24;98318.59;6018855;29;96806;-61
2023/07/03 14:00:13;;;;;;;;;13.00;11.50;;;;;32.13;35.27;98310.03;6019898;29;97050;-61
2023/07/03 14:03:17;;;;;;;;;9.00;9.00;;;;;31.82;36.20;98309.16;6023984;29;96479;-61
2023/07/03 14:06:20;;;;;;;;;12.00;10.00;;;;;31.50;34.84;98285.56;6022693;29;96675;-61
2023/07/03 14:09:25;;;;;;;;;14.00;13.00;;;;;31.66;37.49;98300.19;6022322;29;99030;-61
2023/07/03 14:12:29;;;;;;;;;14.40;12.60;;;;;31.57;38.52;98302.41;6023757;29;96283;-60
2023/07/03 14:15:35;;;;;;;;;14.00;13.60;;;;;31.63;39.28;98300.91;6006655;29;96706;-61
2023/07/03 14:18:39;;;;;;;;;16.60;14.20;;;;;31.82;38.36;98302.78;6023948;29;96384;-61
2023/07/03 14:21:42;;;;;;;;;15.40;14.00;;;;;32.00;39.47;98303.03;6020516;29;98285;-61
2023/07/03 14:24:47;;;;;;;;;15.00;12.00;;;;;32.15;37.41;98300.09;6018713;29;97227;-61